El Dorado Springs, MO (64744)

9:13 AM CDT on July 25, 2014 (GMT -0500)
City Park (KMOSTOCK3) Elev 958 ft | 37.70 °N, 93.80 °W | Change Station

Current weather conditions updated 5 seconds ago

Partly Cloudy
Partly Cloudy
79.9 °F
Feels Like 83 °F
N
3.8
Wind Variable Wind from South
Gusts 7.6 mph

Today is forecast to be Much Warmer than yesterday.

Today
High -- | Low -- °F
--% Chance of Precip.
Yesterday
High -- | Low -- °F
Precip. -- in
6:13 AM 8:31 PM
Waning Crescent, 2% visible
Pressure 29.97 in
Visibility 10.0 miles
Clouds Clear
Heat Index 83 °F
Dew Point 71 °F
Humidity 74%
Rainfall 0.00 in
Snow Depth Not available.
UV 3 out of 12
Pollen 5.40 out of 12
Air Quality Not available.
Flu Activity Not available.
METAR KGLY 251355Z AUTO 19010G15KT 10SM CLR 24/21 A2997 RMK AO2

More Conditions Fewer Conditions

Pressure 29.97 in
Visibility 10.0 miles
Clouds Clear
Heat Index 83 °F
Dew Point 71 °F
Humidity 74%
Rainfall 0.00 in
Snow Depth Not available.
UV 3 out of 12
Pollen 5.40 out of 12
Air Quality Not available.
Flu Activity Not available.
METAR KGLY 251355Z AUTO 19010G15KT 10SM CLR 24/21 A2997 RMK AO2

More Conditions Fewer Conditions

10-Day Weather Forecast

Almanac

Astronomy

Jul. 25, 2014 Rise Set
Actual Time 6:13 AM CDT 8:31 PM CDT
Civil Twilight 5:43 AM CDT 9:00 PM CDT
Nautical Twilight 5:07 AM CDT 9:37 PM CDT
Astronomical Twilight 4:27 AM CDT 10:17 PM CDT
Moon 5:12 AM CDT 7:29 PM CDT
Length of Visible Light 15h 16m
Length of Day
14h 17m
Tomorrow will be 1m 38s shorter.
Waning Crescent, 2% of the Moon is Illuminated
Today
Waning Crescent
Jul 26
New
Aug 3
First Quarter
Aug 10
Full
Aug 17
Last Quarter

Today's Extremes

State Highs State Lows

Community

WunderPhotos

Upload Photos

1,737,340 photos uploaded!

Nearby

Snow Depth

Station Depth Elevation
No new snow has been reported.

Earthquake Activity

City Distance Mag. Time & Date
No recent earthquake activity has been reported nearby.
Minimum magnitude displayed is 2.5.

Coastal Water Temperatures

Place Temperature
No Stations Reporting

Nearby Weather Stations

Station Location Temp. Heat Index Dew Point Humidity Wind Precip. Elev Updated Type
City Park, Stockton, MO 79.9 °F 83 °F 71 °F 74% South  at  3.8 mph 0.00 in / hr 958 ft 9:13 AM CDT Rapid Fire
Nevada, Nevada, MO 80.4 °F 83 °F 68 °F 67% South  at  8.3 mph 0.00 in / hr 863 ft 10:13 AM EDT Rapid Fire
Vernon Co. EOC, Nevada, MO 77.8 °F 80 °F 72 °F 81% SE  at  7.0 mph 0.00 in / hr 900 ft 9:13 AM CDT Rapid Fire
Between Arnica And Bugtussle, Humansville, MO 78.1 °F 80 °F 64 °F 62% South  at  0.9 mph 0.00 in / hr 1010 ft 9:11 AM CDT Normal
Irwin, MO, Lamar, MO 76.8 °F 78 °F 72 °F 85% SSW  at  8.0 mph 0.00 in / hr 955 ft 9:02 AM CDT Normal

Show More Stations Show Fewer Stations